Time;durP1;ratioP1;P1;durP2;ratioP2;P2;SDS_P1;SDS_P2;PMS_P1;PMS_P2;Temp;Humidity;BMP_temperature;BMP_pressure;BME280_temperature;BME280_humidity;BME280_pressure;Samples;Min_cycle;Max_cycle;Signal;HPM_P1;HPM_P2
2022/08/11 00:02:10;;;;;;;2.62;1.40;;;;;;;22.33;41.86;100253.03;4360218;32;34894;-76
2022/08/11 00:05:04;;;;;;;3.17;1.50;;;;;;;22.55;41.42;100248.56;4360890;32;36811;-77
2022/08/11 00:07:53;;;;;;;2.03;1.30;;;;;;;22.27;42.01;100255.31;4359079;32;34372;-76
2022/08/11 00:10:40;;;;;;;3.83;1.65;;;;;;;22.27;42.21;100258.13;4358236;32;33832;-76
2022/08/11 00:13:35;;;;;;;3.28;1.50;;;;;;;22.50;42.19;100251.66;4357995;32;34801;-76
2022/08/11 00:16:23;;;;;;;2.90;1.40;;;;;;;22.40;42.81;100247.56;4354220;32;34609;-76
2022/08/11 00:19:10;;;;;;;3.15;1.50;;;;;;;20.61;47.36;100253.38;4354533;32;34619;-76
2022/08/11 00:21:57;;;;;;;2.50;1.20;;;;;;;21.44;46.36;100250.31;4358229;32;34672;-76
2022/08/11 00:24:51;;;;;;;2.65;1.58;;;;;;;21.36;45.54;100244.94;4362973;32;34349;-76
2022/08/11 00:27:45;;;;;;;2.35;1.30;;;;;;;21.67;44.67;100233.59;4353285;32;34387;-76
2022/08/11 00:30:38;;;;;;;3.85;1.40;;;;;;;21.37;45.79;100241.78;4348421;32;189704;-76
2022/08/11 00:33:34;;;;;;;3.50;1.30;;;;;;;21.61;45.23;100239.84;4352298;32;34099;-76
2022/08/11 00:36:42;;;;;;;5.47;1.40;;;;;;;21.68;44.93;100239.97;4354873;32;35573;-76
2022/08/11 00:39:31;;;;;;;3.33;1.70;;;;;;;21.42;45.84;100241.50;4348972;32;34650;-76
2022/08/11 00:42:45;;;;;;;2.70;1.50;;;;;;;21.40;46.06;100238.25;4356794;32;34896;-76
2022/08/11 00:45:39;;;;;;;3.08;1.27;;;;;;;20.54;48.73;100227.34;4359086;32;34104;-76
2022/08/11 00:48:31;;;;;;;3.35;1.27;;;;;;;21.43;46.28;100228.34;4350912;32;34703;-76
2022/08/11 00:51:30;;;;;;;3.37;1.33;;;;;;;21.27;46.10;100234.81;4343860;32;36054;-76
2022/08/11 00:54:51;;;;;;;2.00;1.10;;;;;;;20.10;47.68;100231.09;4353810;32;34706;-76
2022/08/11 00:58:26;;;;;;;2.67;1.00;;;;;;;21.48;44.81;100226.06;4351344;32;35030;-76
2022/08/11 01:01:16;;;;;;;1.83;0.93;;;;;;;21.42;45.08;100229.53;4353696;32;34715;-76
2022/08/11 01:04:27;;;;;;;1.75;1.00;;;;;;;21.40;45.00;100227.13;4358575;32;36056;-76
2022/08/11 01:07:32;;;;;;;2.40;1.37;;;;;;;21.70;44.21;100229.25;4358870;32;34624;-76
2022/08/11 01:11:01;;;;;;;2.58;1.35;;;;;;;21.83;44.57;100236.25;4358439;32;34688;-76
2022/08/11 01:13:56;;;;;;;1.58;1.25;;;;;;;21.74;44.51;100218.94;4339193;32;35606;-76
2022/08/11 01:17:10;;;;;;;2.72;1.35;;;;;;;22.52;41.96;100226.97;4357090;32;34946;-76
2022/08/11 01:20:09;;;;;;;3.65;1.35;;;;;;;22.25;42.92;100218.59;4361307;32;34509;-76
2022/08/11 01:23:34;;;;;;;1.95;1.10;;;;;;;22.38;43.47;100222.78;4360849;32;35007;-76
2022/08/11 01:26:42;;;;;;;2.17;1.40;;;;;;;22.25;42.84;100224.19;4358002;32;34734;-76
2022/08/11 01:29:50;;;;;;;2.03;1.30;;;;;;;22.42;42.77;100220.03;4358069;32;34703;-76
2022/08/11 01:32:55;;;;;;;1.65;1.17;;;;;;;21.99;43.87;100217.38;4363420;32;35112;-76
2022/08/11 01:36:19;;;;;;;3.47;1.10;;;;;;;21.83;44.33;100219.53;4359326;32;34225;-76
2022/08/11 01:39:24;;;;;;;3.47;1.10;;;;;;;21.41;46.61;100217.59;4354217;32;35726;-76
2022/08/11 01:45:57;;;;;;;2.25;1.25;;;;;;;22.22;43.92;100209.00;4358532;32;34835;-76
2022/08/11 01:48:53;;;;;;;1.80;1.12;;;;;;;21.62;46.23;100210.78;4358792;32;37153;-76
2022/08/11 01:52:01;;;;;;;2.47;1.10;;;;;;;21.92;44.97;100217.28;4358506;32;35186;-76
2022/08/11 01:55:11;;;;;;;1.92;1.02;;;;;;;21.99;45.33;100211.81;4358876;32;35031;-76
2022/08/11 01:58:17;;;;;;;2.90;1.08;;;;;;;21.24;46.91;100220.81;4354116;32;35546;-76
2022/08/11 02:01:22;;;;;;;1.85;1.00;;;;;;;22.08;44.84;100208.75;4358250;32;34218;-76
2022/08/11 02:04:09;;;;;;;2.35;1.00;;;;;;;21.39;45.67;100211.56;4356126;32;34083;-76
2022/08/11 02:07:09;;;;;;;4.65;1.33;;;;;;;20.64;48.39;100219.22;4357653;32;35062;-76
2022/08/11 02:11:29;;;;;;;2.58;1.12;;;;;;;21.31;46.92;100201.44;4353843;32;34604;-76
2022/08/11 02:13:29;;;;;;;1.77;0.82;;;;;;;21.52;44.81;100209.44;4357652;32;34125;-76
2022/08/11 02:16:35;;;;;;;3.55;1.35;;;;;;;22.04;43.49;100195.94;4358333;32;35511;-76
2022/08/11 02:26:08;;;;;;;4.17;1.10;;;;;;;21.89;44.32;100203.28;4358611;32;34471;-76
2022/08/11 02:29:22;;;;;;;1.73;1.10;;;;;;;22.26;41.47;100202.69;4348775;32;34639;-76
2022/08/11 02:35:35;;;;;;;2.85;1.00;;;;;;;21.10;46.36;100202.66;4350593;32;34635;-76
2022/08/11 02:38:44;;;;;;;2.67;1.12;;;;;;;21.66;45.01;100197.69;4360465;32;35016;-76
2022/08/11 02:45:35;;;;;;;4.75;1.17;;;;;;;20.94;46.85;100196.34;4353568;32;35976;-76
2022/08/11 02:52:01;;;;;;;3.28;1.20;;;;;;;21.79;44.78;100194.34;4360148;32;34912;-76
2022/08/11 02:54:53;;;;;;;4.35;1.23;;;;;;;21.62;45.28;100192.06;4360857;32;34782;-76
2022/08/11 02:57:48;;;;;;;1.10;0.85;;;;;;;21.66;45.07;100186.53;4353616;32;34672;-76
2022/08/11 03:00:46;;;;;;;2.45;1.10;;;;;;;21.85;44.22;100194.84;4352734;32;35542;-76
2022/08/11 03:03:38;;;;;;;1.10;0.93;;;;;;;21.67;44.28;100190.97;4350581;32;35024;-76
2022/08/11 03:06:44;;;;;;;1.77;1.23;;;;;;;21.26;45.31;100196.16;4364977;32;34695;-76
2022/08/11 03:09:41;;;;;;;2.08;1.10;;;;;;;21.32;45.86;100184.34;4363334;32;35924;-76
2022/08/11 03:19:10;;;;;;;4.20;1.17;;;;;;;20.48;48.29;100212.06;4358877;32;35660;-76
2022/08/11 03:22:12;;;;;;;2.78;1.10;;;;;;;21.14;46.18;100207.47;4358368;32;35031;-76
2022/08/11 03:25:04;;;;;;;2.40;1.02;;;;;;;20.32;48.76;100204.56;4344251;32;35456;-76
2022/08/11 03:28:20;;;;;;;2.45;1.00;;;;;;;21.11;46.73;100198.69;4359547;32;33004;-76
2022/08/11 03:31:24;;;;;;;2.00;0.95;;;;;;;21.36;46.35;100201.12;4350203;32;35572;-76
2022/08/11 03:34:38;;;;;;;5.50;1.40;;;;;;;21.17;46.86;100209.53;4331211;32;34534;-76
2022/08/11 03:37:50;;;;;;;3.47;1.12;;;;;;;21.27;46.72;100198.59;4341521;32;34662;-76
2022/08/11 03:44:53;;;;;;;2.97;1.17;;;;;;;21.34;46.12;100197.91;4359446;32;35548;-76
2022/08/11 03:48:03;;;;;;;1.50;0.90;;;;;;;21.09;46.70;100197.47;4347412;32;36073;-76
2022/08/11 03:51:02;;;;;;;2.85;0.95;;;;;;;21.09;45.89;100191.88;4347489;32;34884;-76
2022/08/11 03:53:57;;;;;;;1.75;1.20;;;;;;;21.03;46.49;100199.75;4353879;32;34263;-76
2022/08/11 03:57:08;;;;;;;9.18;1.10;;;;;;;21.35;45.68;100202.31;4359441;32;34666;-76
2022/08/11 04:00:18;;;;;;;2.08;1.20;;;;;;;21.20;45.98;100200.44;4359437;32;35164;-76
2022/08/11 04:03:52;;;;;;;3.30;1.10;;;;;;;21.50;45.56;100195.84;4359438;32;35469;-76
2022/08/11 04:07:16;;;;;;;2.05;1.10;;;;;;;21.34;45.96;100201.53;4354408;32;34160;-76
2022/08/11 04:10:28;;;;;;;1.62;0.82;;;;;;;20.72;46.63;100195.12;4359931;32;35760;-76
2022/08/11 04:13:48;;;;;;;1.80;1.17;;;;;;;21.06;45.56;100198.16;4360112;32;34428;-76
2022/08/11 04:16:58;;;;;;;3.28;1.10;;;;;;;21.60;44.77;100208.38;4359569;32;34727;-76
2022/08/11 04:20:22;;;;;;;1.60;0.93;;;;;;;21.27;46.50;100197.78;4359562;32;34129;-76
2022/08/11 04:23:31;;;;;;;2.58;1.10;;;;;;;22.10;44.85;100200.00;4359194;32;34332;-76
2022/08/11 04:26:59;;;;;;;2.62;1.05;;;;;;;22.14;44.99;100204.47;4359169;32;35111;-76
2022/08/11 04:30:04;;;;;;;3.10;1.10;;;;;;;22.48;44.23;100212.16;4358208;32;34649;-76
2022/08/11 04:33:29;;;;;;;2.37;1.10;;;;;;;22.65;44.54;100212.41;4351194;32;35257;-76
2022/08/11 04:39:59;;;;;;;5.32;1.30;;;;;;;22.52;44.27;100221.41;4359275;32;35031;-76
2022/08/11 04:43:20;;;;;;;3.47;0.98;;;;;;;22.51;45.22;100208.59;4359127;32;34682;-76
2022/08/11 04:46:27;;;;;;;2.87;1.10;;;;;;;22.55;46.14;100213.06;4355968;32;34192;-76
2022/08/11 05:03:32;;;;;;;2.10;1.15;;;;;;;22.20;49.34;100221.75;4358948;32;34218;-76
2022/08/11 05:06:33;;;;;;;4.60;1.27;;;;;;;22.39;46.95;100218.81;4358950;32;34728;-76
2022/08/11 05:09:28;;;;;;;4.20;1.20;;;;;;;21.52;49.11;100220.59;4351896;32;34543;-76
2022/08/11 05:12:20;;;;;;;1.05;0.82;;;;;;;21.77;48.42;100223.78;4352409;32;34189;-76
2022/08/11 05:37:28;;;;;;;1.95;1.00;;;;;;;23.31;42.95;100239.97;4358800;32;35098;-76
2022/08/11 05:56:20;;;;;;;2.47;1.02;;;;;;;24.16;40.28;100242.78;4355132;32;35969;-77
2022/08/11 05:59:13;;;;;;;2.17;1.05;;;;;;;23.37;40.83;100240.41;4356436;32;34860;-76
2022/08/11 06:02:02;;;;;;;1.92;1.10;;;;;;;24.15;40.74;100246.75;4358253;32;34933;-76
2022/08/11 06:04:55;;;;;;;4.37;1.48;;;;;;;24.67;39.11;100241.91;4357564;32;32590;-77
2022/08/11 06:07:42;;;;;;;2.58;1.20;;;;;;;23.32;40.08;100245.16;4365867;32;34919;-76
2022/08/11 06:10:37;;;;;;;3.08;1.00;;;;;;;23.66;40.13;100245.09;4361655;32;34637;-76
2022/08/11 06:13:24;;;;;;;2.75;1.00;;;;;;;23.87;39.08;100243.72;4358904;32;33624;-76
2022/08/11 06:16:14;;;;;;;3.35;0.90;;;;;;;24.30;38.53;100246.84;4358301;32;35574;-76
2022/08/11 06:19:00;;;;;;;1.87;1.15;;;;;;;23.91;39.47;100245.38;4360805;32;34645;-76
2022/08/11 06:21:46;;;;;;;1.40;1.05;;;;;;;24.48;38.92;100249.78;4359354;32;34731;-77
2022/08/11 06:24:34;;;;;;;2.50;1.10;;;;;;;23.81;39.59;100254.47;4359298;32;35022;-77
2022/08/11 06:27:21;;;;;;;2.65;1.10;;;;;;;23.85;39.77;100240.50;4365300;32;34638;-76
2022/08/11 06:30:13;;;;;;;3.20;1.10;;;;;;;24.19;39.12;100238.38;4364262;32;34935;-77
2022/08/11 06:33:00;;;;;;;3.90;1.23;;;;;;;24.23;38.32;100244.81;4362693;32;34258;-77
2022/08/11 06:35:59;;;;;;;2.62;1.10;;;;;;;24.61;38.58;100242.69;4355967;32;34117;-76
2022/08/11 06:39:24;;;;;;;2.30;1.00;;;;;;;24.99;36.86;100229.22;4353339;32;34786;-76
2022/08/11 06:42:14;;;;;;;1.83;1.20;;;;;;;24.85;37.39;100235.59;4297336;33;35734;-76
2022/08/11 06:45:25;;;;;;;1.95;1.30;;;;;;;24.94;37.79;100236.03;4298391;33;34638;-77
2022/08/11 06:48:16;;;;;;;1.95;1.20;;;;;;;25.13;36.65;100234.88;4358803;32;34026;-76
2022/08/11 06:51:13;;;;;;;3.47;1.30;;;;;;;25.31;36.39;100235.78;4353022;32;35297;-75
2022/08/11 06:54:00;;;;;;;1.87;1.00;;;;;;;25.20;35.06;100229.34;4347978;32;34929;-76
2022/08/11 07:00:29;;;;;;;2.72;1.30;;;;;;;25.54;34.75;100229.81;4359484;32;36093;-77
2022/08/11 07:03:19;;;;;;;5.97;1.00;;;;;;;25.89;33.87;100235.88;4358194;32;35595;-77
2022/08/11 07:06:39;;;;;;;2.08;1.50;;;;;;;25.64;35.00;100225.41;4366232;32;35987;-76
2022/08/11 07:16:33;;;;;;;3.03;1.10;;;;;;;25.75;33.56;100225.41;4359860;32;34760;-76
2022/08/11 07:28:54;;;;;;;3.17;1.00;;;;;;;25.94;31.75;100227.88;4342182;32;34813;-76
2022/08/11 07:29:01;;;;;;;2.85;1.00;;;;;;;26.38;33.89;100208.94;4359888;32;33843;-76
2022/08/11 07:31:50;;;;;;;3.40;1.27;;;;;;;26.21;30.81;100204.97;4359353;32;33349;-76
2022/08/11 07:34:39;;;;;;;2.67;0.90;;;;;;;26.15;32.27;100203.78;4354067;32;34713;-77
2022/08/11 07:37:32;;;;;;;4.37;1.00;;;;;;;26.46;31.77;100211.34;4353158;32;34958;-77
2022/08/11 07:40:23;;;;;;;2.78;1.30;;;;;;;26.13;33.24;100217.44;4362751;32;35527;-76
2022/08/11 07:43:11;;;;;;;2.37;1.30;;;;;;;26.79;31.12;100217.69;4347716;32;34953;-77
2022/08/11 07:52:29;;;;;;;2.55;1.60;;;;;;;26.50;29.89;100202.94;4349797;32;35018;-76
2022/08/11 07:55:16;;;;;;;3.70;1.17;;;;;;;26.83;29.57;100204.41;4366660;32;34975;-76
2022/08/11 08:19:55;;;;;;;1.42;1.00;;;;;;;26.65;29.12;100192.44;4357966;32;35864;-77
2022/08/11 08:22:42;;;;;;;2.87;1.25;;;;;;;26.77;30.87;100194.81;4358941;32;35498;-77
2022/08/11 08:25:35;;;;;;;5.68;1.48;;;;;;;26.17;30.06;100204.97;4347948;32;35115;-77
2022/08/11 08:28:22;;;;;;;3.20;1.35;;;;;;;26.44;30.72;100202.53;4349056;32;35252;-77
2022/08/11 08:31:08;;;;;;;1.80;1.10;;;;;;;26.60;30.13;100196.47;4359025;32;34569;-77
2022/08/11 08:33:55;;;;;;;2.70;1.30;;;;;;;26.97;30.55;100202.75;4358824;32;35508;-76
2022/08/11 08:36:43;;;;;;;4.28;1.40;;;;;;;27.02;29.91;100193.91;4358899;32;34096;-76
2022/08/11 08:39:33;;;;;;;5.75;1.40;;;;;;;27.34;29.61;100188.91;4347405;32;34368;-77
2022/08/11 08:42:23;;;;;;;6.62;2.50;;;;;;;26.98;30.35;100193.09;4353375;32;34569;-77
2022/08/11 08:45:15;;;;;;;2.42;1.23;;;;;;;27.18;30.73;100184.97;4361039;32;34952;-77
2022/08/11 08:48:03;;;;;;;5.85;1.35;;;;;;;26.74;31.27;100181.56;4353481;32;34076;-77
2022/08/11 08:54:10;;;;;;;2.75;1.40;;;;;;;26.87;31.08;100177.09;4358729;32;36394;-77
2022/08/11 08:56:57;;;;;;;3.30;1.50;;;;;;;26.19;31.41;100176.50;4358562;32;34824;-77
2022/08/11 08:59:47;;;;;;;6.25;1.33;;;;;;;27.54;29.67;100177.91;4358349;32;34839;-78
2022/08/11 09:02:37;;;;;;;4.37;1.52;;;;;;;25.72;31.01;100181.31;4355325;32;34657;-76
2022/08/11 09:05:25;;;;;;;4.18;1.15;;;;;;;26.20;31.72;100184.50;4350615;32;34925;-76
2022/08/11 09:08:12;;;;;;;2.03;1.20;;;;;;;27.16;29.63;100182.59;4358657;32;35262;-77
2022/08/11 09:14:05;;;;;;;1.95;1.25;;;;;;;27.47;30.62;100168.72;4364648;32;34609;-77
2022/08/11 09:16:57;;;;;;;4.18;1.40;;;;;;;27.63;29.44;100177.44;4353757;32;35024;-77
2022/08/11 09:19:45;;;;;;;4.55;1.40;;;;;;;28.10;28.01;100165.78;4357984;32;34151;-77
2022/08/11 09:29:16;;;;;;;5.62;1.40;;;;;;;28.39;28.11;100167.06;4358534;32;35018;-77
2022/08/11 09:32:05;;;;;;;2.25;1.45;;;;;;;27.79;28.14;100154.41;4346813;32;33635;-77
2022/08/11 09:34:52;;;;;;;1.92;1.30;;;;;;;28.75;27.16;100148.97;4358169;32;34158;-77
2022/08/11 09:40:46;;;;;;;4.85;1.45;;;;;;;28.62;28.05;100145.91;4358432;32;35249;-78
2022/08/11 09:46:50;;;;;;;3.72;1.50;;;;;;;28.77;25.52;100133.19;4348876;32;34735;-77
2022/08/11 09:49:38;;;;;;;3.05;1.10;;;;;;;29.05;26.24;100140.50;4356786;32;34594;-77
2022/08/11 09:52:25;;;;;;;1.75;1.15;;;;;;;29.22;25.63;100137.84;4364019;32;35899;-77
2022/08/11 09:55:13;;;;;;;4.85;1.33;;;;;;;29.50;24.38;100136.59;4356895;32;34812;-77
2022/08/11 09:58:12;;;;;;;1.52;1.00;;;;;;;28.80;25.09;100128.72;4367107;32;34253;-78
2022/08/11 10:01:26;;;;;;;1.83;0.80;;;;;;;28.46;23.50;100138.03;4350140;32;34771;-77
2022/08/11 10:04:16;;;;;;;3.10;1.12;;;;;;;28.67;22.35;100120.84;4356684;32;35979;-77
2022/08/11 10:07:09;;;;;;;1.45;1.10;;;;;;;28.51;23.56;100117.84;4346823;32;35439;-76
2022/08/11 10:09:58;;;;;;;2.00;1.20;;;;;;;28.52;23.74;100125.09;4347706;32;34051;-76
2022/08/11 10:12:48;;;;;;;2.75;1.08;;;;;;;26.48;25.48;100121.03;4357756;32;34672;-77
2022/08/11 10:15:38;;;;;;;3.27;1.27;;;;;;;28.08;25.59;100126.75;4352175;32;34909;-77
2022/08/11 10:18:51;;;;;;;4.00;2.37;;;;;;;27.13;26.34;100121.50;4349043;32;34532;-76
2022/08/11 10:26:48;;;;;;;2.72;1.20;;;;;;;27.11;27.57;100115.50;4356747;32;34269;-77
2022/08/11 10:27:59;;;;;;;2.70;1.05;;;;;;;26.88;26.77;100114.03;4348382;32;35970;-77
2022/08/11 10:34:15;;;;;;;3.03;1.20;;;;;;;28.18;26.17;100094.06;4360019;32;35094;-77
2022/08/11 10:37:05;;;;;;;3.08;1.20;;;;;;;28.65;25.60;100095.09;4360486;32;35652;-76
2022/08/11 10:40:00;;;;;;;3.10;1.10;;;;;;;28.38;26.12;100082.97;4349199;32;35985;-77
2022/08/11 10:43:01;;;;;;;1.58;1.10;;;;;;;28.55;24.96;100086.81;4350995;32;34670;-77
2022/08/11 10:48:55;;;;;;;2.05;1.30;;;;;;;28.97;25.15;100088.19;4357300;32;34746;-77
2022/08/11 11:00:59;;;;;;;2.55;1.02;;;;;;;27.90;24.30;100089.56;4357339;32;34640;-76
2022/08/11 11:03:46;;;;;;;1.08;0.68;;;;;;;28.59;24.78;100079.09;4356894;32;34924;-77
2022/08/11 11:06:43;;;;;;;8.50;0.93;;;;;;;29.16;21.80;100074.66;4358345;32;34632;-77
2022/08/11 11:09:32;;;;;;;1.50;1.02;;;;;;;29.08;22.19;100071.94;4363443;32;35719;-77
2022/08/11 11:18:53;;;;;;;2.00;1.08;;;;;;;28.43;22.54;100066.41;4358408;32;34229;-77
2022/08/11 11:21:50;;;;;;;3.08;1.10;;;;;;;29.15;21.52;100054.09;4359079;32;35169;-77
2022/08/11 11:25:09;;;;;;;1.70;1.02;;;;;;;28.89;22.00;100048.03;4358626;32;34642;-78
2022/08/11 11:28:08;;;;;;;1.27;1.00;;;;;;;28.14;21.49;100034.94;4357826;32;34512;-77
2022/08/11 11:31:21;;;;;;;1.25;0.82;;;;;;;29.52;18.56;100032.50;4359141;32;34336;-77
2022/08/11 11:34:42;;;;;;;5.10;1.10;;;;;;;29.80;17.95;100031.22;4358972;32;34281;-78
2022/08/11 11:37:42;;;;;;;6.80;1.37;;;;;;;30.88;19.01;100027.72;4359251;32;34178;-77
2022/08/11 11:41:23;;;;;;;2.83;1.00;;;;;;;29.92;19.45;100033.37;4366464;32;35561;-77
2022/08/11 11:43:56;;;;;;;3.90;1.85;;;;;;;29.15;20.39;100031.53;4358678;32;34707;-77
2022/08/11 11:46:47;;;;;;;3.65;1.17;;;;;;;28.72;20.85;100028.53;4367694;32;35105;-76
2022/08/11 11:49:38;;;;;;;2.45;1.20;;;;;;;29.07;20.56;99997.00;4349894;32;35253;-79
2022/08/11 11:52:24;;;;;;;1.80;1.17;;;;;;;28.52;21.45;100017.16;4358127;32;35630;-77
2022/08/11 11:55:11;;;;;;;1.33;0.90;;;;;;;28.55;21.33;100019.16;4358816;32;35522;-77
2022/08/11 12:01:15;;;;;;;2.75;1.00;;;;;;;30.06;21.53;100003.25;4358078;32;34618;-77
2022/08/11 12:04:05;;;;;;;2.55;0.90;;;;;;;29.34;20.31;100005.41;4358435;32;35127;-77
2022/08/11 12:08:08;;;;;;;1.95;1.10;;;;;;;29.21;20.40;100000.81;4359323;32;35367;-77
2022/08/11 12:09:59;;;;;;;1.87;1.00;;;;;;;29.32;21.27;100002.22;4356317;32;33663;-78
2022/08/11 12:15:51;;;;;;;3.62;1.02;;;;;;;29.45;21.31;99993.91;4358402;32;35078;-77
2022/08/11 12:18:58;;;;;;;2.87;0.90;;;;;;;28.85;21.19;99987.25;4357189;32;34252;-77
2022/08/11 12:27:55;;;;;;;2.28;1.00;;;;;;;28.22;22.09;99988.56;4358205;32;35138;-77
2022/08/11 12:30:42;;;;;;;2.03;1.00;;;;;;;28.89;21.20;99985.19;4357465;32;35337;-78
2022/08/11 12:33:33;;;;;;;4.18;0.88;;;;;;;27.97;22.47;99993.72;4357965;32;34182;-77
2022/08/11 12:36:24;;;;;;;1.05;0.80;;;;;;;28.81;21.77;99989.34;4358915;32;35170;-77
2022/08/11 12:39:19;;;;;;;2.80;0.90;;;;;;;28.81;21.04;99984.50;4360918;32;35209;-78
2022/08/11 12:45:28;;;;;;;2.12;1.00;;;;;;;29.07;21.59;99971.59;4357511;32;34778;-78
2022/08/11 12:51:57;;;;;;;1.12;0.85;;;;;;;27.59;24.11;99980.44;4358541;32;35734;-76
2022/08/11 12:58:14;;;;;;;2.30;1.20;;;;;;;27.25;24.42;99971.97;4355656;32;34858;-78
2022/08/11 12:58:20;;;;;;;1.58;0.90;;;;;;;27.65;24.24;99977.19;4352994;32;34397;-78
2022/08/11 13:07:16;;;;;;;2.78;0.98;;;;;;;28.31;23.33;99956.25;4357298;32;34618;-77
2022/08/11 13:10:05;;;;;;;1.67;0.90;;;;;;;29.50;22.28;99945.41;4358296;32;33786;-77
2022/08/11 13:12:55;;;;;;;1.40;0.73;;;;;;;30.31;22.09;99946.19;4346935;32;35653;-77
2022/08/11 13:15:42;;;;;;;1.30;0.85;;;;;;;31.02;20.83;99955.00;4357368;32;35899;-77
2022/08/11 13:18:29;;;;;;;1.00;0.80;;;;;;;32.00;20.13;99941.41;4358474;32;35126;-77
2022/08/11 13:21:16;;;;;;;0.95;0.70;;;;;;;32.25;19.70;99943.50;4367624;32;34158;-77
2022/08/11 13:24:05;;;;;;;3.37;1.07;;;;;;;32.29;20.08;99936.91;4358167;32;34704;-77
2022/08/11 13:26:52;;;;;;;3.62;0.88;;;;;;;31.85;20.04;99930.91;4357233;32;36034;-77
2022/08/11 13:29:40;;;;;;;3.95;0.95;;;;;;;30.91;20.54;99933.47;4357201;32;34158;-78
2022/08/11 13:32:28;;;;;;;1.10;0.90;;;;;;;30.53;21.04;99932.37;4366769;32;35084;-78
2022/08/11 13:35:15;;;;;;;1.48;0.80;;;;;;;29.81;21.93;99936.78;4367382;32;34176;-77
2022/08/11 13:38:02;;;;;;;3.45;0.90;;;;;;;30.58;21.62;99926.97;4358432;32;34695;-77
2022/08/11 13:44:16;;;;;;;4.43;0.80;;;;;;;30.13;21.64;99926.81;4358314;32;34783;-77
2022/08/11 13:47:11;;;;;;;1.05;0.80;;;;;;;29.54;22.29;99917.94;4360463;32;35468;-78
2022/08/11 13:49:57;;;;;;;3.72;0.80;;;;;;;29.33;22.56;99924.78;4352214;32;34622;-78
2022/08/11 13:52:45;;;;;;;1.35;0.77;;;;;;;28.34;23.30;99927.22;4358084;32;35331;-77
2022/08/11 13:55:38;;;;;;;1.85;0.80;;;;;;;29.29;22.87;99915.59;4358091;32;35961;-77
2022/08/11 13:58:37;;;;;;;4.95;1.00;;;;;;;29.59;23.39;99914.59;4356937;32;35775;-78
2022/08/11 14:01:29;;;;;;;2.17;0.90;;;;;;;28.08;25.11;99920.34;4356989;32;35060;-78
2022/08/11 14:05:28;;;;;;;2.75;1.00;;;;;;;27.48;26.61;99922.69;4348774;32;34224;-77
2022/08/11 14:08:17;;;;;;;3.00;0.95;;;;;;;27.62;26.82;99919.69;4353785;32;33671;-77
2022/08/11 14:15:02;;;;;;;1.52;0.90;;;;;;;27.78;25.95;99924.75;4354672;32;34379;-77
2022/08/11 14:18:00;;;;;;;2.58;1.00;;;;;;;27.77;25.79;99923.94;4355030;32;35167;-77
2022/08/11 14:23:58;;;;;;;2.22;0.80;;;;;;;27.91;25.58;99902.47;4357602;32;34653;-78
2022/08/11 14:26:48;;;;;;;1.62;0.88;;;;;;;27.86;25.85;99909.37;4354591;32;35052;-77
2022/08/11 14:29:38;;;;;;;4.03;0.90;;;;;;;28.81;25.69;99911.19;4357657;32;35270;-78
2022/08/11 14:32:33;;;;;;;1.20;0.80;;;;;;;29.06;25.39;99910.78;4356911;32;34879;-78
2022/08/11 14:35:38;;;;;;;1.50;0.95;;;;;;;29.07;25.24;99906.72;4356774;32;34592;-77
2022/08/11 14:38:29;;;;;;;2.37;0.82;;;;;;;28.10;25.86;99913.06;4358098;32;36661;-77
2022/08/11 14:47:29;;;;;;;1.67;0.80;;;;;;;27.93;26.71;99902.84;4365601;32;34726;-77
2022/08/11 14:50:23;;;;;;;1.17;0.80;;;;;;;27.66;26.74;99905.59;4348808;32;36078;-77
2022/08/11 14:53:10;;;;;;;1.83;1.00;;;;;;;27.39;27.25;99909.13;4358359;32;34449;-77
2022/08/11 14:59:07;;;;;;;1.25;0.82;;;;;;;27.16;27.13;99906.16;4359999;32;34635;-77
2022/08/11 15:05:01;;;;;;;1.45;0.80;;;;;;;27.65;27.61;99898.38;4367001;32;34300;-77
2022/08/11 15:07:47;;;;;;;1.85;0.70;;;;;;;28.10;26.86;99904.63;4350601;32;34106;-78
2022/08/11 15:10:34;;;;;;;1.25;0.90;;;;;;;27.70;26.20;99900.72;4357926;32;35189;-77
2022/08/11 15:13:20;;;;;;;3.30;0.80;;;;;;;28.02;26.99;99898.28;4348204;32;35567;-77
2022/08/11 15:19:28;;;;;;;0.80;0.65;;;;;;;27.59;26.01;99900.84;4352048;32;34153;-77
2022/08/11 15:25:28;;;;;;;1.60;0.90;;;;;;;27.27;26.95;99902.03;4362044;32;36186;-77
2022/08/11 15:37:30;;;;;;;1.70;0.88;;;;;;;27.23;26.56;99892.00;4358386;32;34909;-77
2022/08/11 15:46:49;;;;;;;2.60;0.80;;;;;;;26.51;26.63;99886.25;4361812;32;34683;-77
2022/08/11 15:49:41;;;;;;;4.68;0.90;;;;;;;26.59;27.08;99884.97;4358093;32;35041;-78
2022/08/11 15:53:13;;;;;;;3.28;0.60;;;;;;;26.65;26.37;99884.09;4358167;32;34824;-76
2022/08/11 15:55:59;;;;;;;2.45;0.82;;;;;;;26.84;26.69;99874.31;4368614;32;33172;-78
2022/08/11 16:05:21;;;;;;;1.62;1.00;;;;;;;26.89;26.64;99887.88;4354187;32;35131;-77
2022/08/11 16:08:27;;;;;;;2.05;0.65;;;;;;;26.65;25.44;99884.09;4358983;32;35027;-78
2022/08/11 16:11:20;;;;;;;2.15;0.68;;;;;;;26.23;25.84;99883.19;4357579;32;35097;-77
2022/08/11 16:17:16;;;;;;;1.37;0.70;;;;;;;26.32;26.33;99879.91;4366655;32;34209;-77
2022/08/11 16:20:03;;;;;;;1.08;0.77;;;;;;;26.33;26.17;99877.94;4368306;32;33045;-77
2022/08/11 16:22:51;;;;;;;2.30;0.70;;;;;;;26.56;25.94;99874.56;4350269;32;33826;-78
2022/08/11 16:25:48;;;;;;;1.62;0.73;;;;;;;26.59;26.03;99879.34;4359080;32;33904;-77
2022/08/11 16:28:56;;;;;;;0.93;0.52;;;;;;;26.26;29.85;99878.75;4363965;32;35707;-77
2022/08/11 16:32:15;;;;;;;2.50;0.77;;;;;;;26.04;27.30;99883.72;4352879;32;34059;-77
2022/08/11 16:41:13;;;;;;;2.65;0.60;;;;;;;25.71;28.21;99876.66;4352783;32;34366;-77
2022/08/11 16:47:25;;;;;;;2.35;0.90;;;;;;;25.83;27.95;99879.03;4364732;32;34571;-77
2022/08/11 16:50:31;;;;;;;4.47;0.62;;;;;;;25.84;28.20;99877.00;4359326;32;34812;-77
2022/08/11 16:53:17;;;;;;;1.48;0.90;;;;;;;25.73;29.16;99877.84;4358378;32;35690;-77
2022/08/11 16:56:06;;;;;;;2.50;1.00;;;;;;;25.26;30.23;99871.59;4362176;32;34232;-77
2022/08/11 16:59:13;;;;;;;2.17;0.80;;;;;;;25.54;30.37;99881.13;4358875;32;34759;-77
2022/08/11 17:02:09;;;;;;;1.58;0.90;;;;;;;25.40;30.85;99879.19;4359684;32;35909;-77
2022/08/11 17:14:25;;;;;;;2.15;1.27;;;;;;;25.37;31.65;99874.38;4358907;32;35891;-77
2022/08/11 17:17:32;;;;;;;1.40;0.70;;;;;;;25.57;31.33;99878.31;4358574;32;34354;-77
2022/08/11 17:20:18;;;;;;;3.08;1.12;;;;;;;25.46;31.48;99882.38;4358432;32;34118;-77
2022/08/11 17:26:57;;;;;;;1.77;0.90;;;;;;;25.23;31.53;99875.22;4359850;32;34856;-77
2022/08/11 17:29:55;;;;;;;2.60;0.90;;;;;;;25.67;31.25;99887.06;4358831;32;34755;-78
2022/08/11 17:35:53;;;;;;;4.32;0.90;;;;;;;24.15;34.36;99894.03;4365499;32;34519;-77
2022/08/11 17:38:40;;;;;;;8.52;1.02;;;;;;;23.79;35.49;99902.34;4358767;32;34624;-78
2022/08/11 17:50:59;;;;;;;1.62;0.80;;;;;;;24.18;36.48;99917.63;4360267;32;35051;-77
2022/08/11 18:00:37;;;;;;;4.72;0.80;;;;;;;22.79;39.36;99928.81;4313675;33;34625;-78
2022/08/11 18:03:38;;;;;;;1.37;0.70;;;;;;;22.98;38.85;99930.59;4296476;33;35146;-78
2022/08/11 18:06:27;;;;;;;2.00;0.77;;;;;;;23.39;38.26;99930.47;4355289;32;35365;-77
